Time;durP1;ratioP1;P1;durP2;ratioP2;P2;SDS_P1;SDS_P2;PMS_P1;PMS_P2;Temp;Humidity;BMP_temperature;BMP_pressure;BME280_temperature;BME280_humidity;BME280_pressure;Samples;Min_cycle;Max_cycle;Signal;HPM_P1;HPM_P2
2021/10/23 00:00:01;;;;;;;1.20;0.93;;;22.30;54.20;;;;;;5075365;28;20198;-83
2021/10/23 00:02:29;;;;;;;1.60;1.00;;;22.30;54.20;;;;;;5056996;28;20183;-82
2021/10/23 00:04:55;;;;;;;1.37;1.10;;;22.30;54.20;;;;;;5075739;28;20261;-83
2021/10/23 00:07:20;;;;;;;2.53;1.27;;;22.30;54.20;;;;;;5055428;28;20452;-83
2021/10/23 00:09:46;;;;;;;2.33;1.13;;;22.30;54.20;;;;;;5058410;28;20236;-83
2021/10/23 00:12:12;;;;;;;1.40;1.10;;;22.30;54.20;;;;;;5055842;28;20191;-84
2021/10/23 00:14:37;;;;;;;1.83;1.20;;;22.30;54.20;;;;;;5068615;28;20186;-83
2021/10/23 00:17:04;;;;;;;2.10;1.40;;;22.30;54.20;;;;;;5063544;28;20229;-83
2021/10/23 00:19:30;;;;;;;1.23;0.93;;;22.30;54.20;;;;;;5063872;28;20238;-83
2021/10/23 00:21:56;;;;;;;1.73;1.20;;;22.30;54.20;;;;;;5046059;28;20494;-83
2021/10/23 00:24:21;;;;;;;1.50;1.13;;;22.30;54.20;;;;;;5044922;28;20445;-83
2021/10/23 00:26:47;;;;;;;3.03;2.23;;;22.30;54.20;;;;;;5046168;28;20183;-83
2021/10/23 00:29:13;;;;;;;1.77;1.00;;;22.30;54.20;;;;;;5046248;28;20179;-83
2021/10/23 00:31:39;;;;;;;2.40;1.20;;;22.30;54.20;;;;;;5045948;28;20217;-83
2021/10/23 00:34:04;;;;;;;1.37;0.80;;;22.30;54.20;;;;;;5062865;28;20197;-82
2021/10/23 00:36:30;;;;;;;1.70;1.10;;;22.30;54.20;;;;;;5045728;28;20273;-83
2021/10/23 00:42:18;;;;;;;1.83;1.17;;;22.30;54.20;;;;;;5063540;28;20261;-83
2021/10/23 00:44:45;;;;;;;2.23;1.10;;;22.20;54.20;;;;;;5045357;28;20931;-83
2021/10/23 00:47:22;;;;;;;1.30;0.90;;;22.20;54.80;;;;;;5045688;28;20178;-83
2021/10/23 00:49:51;;;;;;;1.77;1.00;;;22.20;54.20;;;;;;5028760;28;20926;-83
2021/10/23 00:52:19;;;;;;;1.00;0.87;;;22.20;54.20;;;;;;5044847;28;20934;-83
2021/10/23 00:54:45;;;;;;;1.40;1.10;;;22.20;54.30;;;;;;5044058;28;20922;-83
2021/10/23 00:57:11;;;;;;;1.30;0.80;;;22.20;54.20;;;;;;5062820;28;20457;-83
2021/10/23 01:00:11;;;;;;;1.87;1.10;;;22.20;54.20;;;;;;5045403;28;20425;-83
2021/10/23 01:02:37;;;;;;;1.80;0.90;;;22.20;54.20;;;;;;5038002;28;20214;-82
2021/10/23 01:05:06;;;;;;;1.70;1.00;;;22.20;54.30;;;;;;5045345;28;20422;-82
2021/10/23 01:07:33;;;;;;;1.20;0.80;;;22.20;54.30;;;;;;5055269;28;20417;-82
2021/10/23 01:10:00;;;;;;;1.27;1.10;;;22.20;54.30;;;;;;5062684;28;20413;-82
2021/10/23 01:12:26;;;;;;;1.50;1.00;;;22.20;54.20;;;;;;5052565;28;20422;-83
2021/10/23 01:14:52;;;;;;;1.50;1.00;;;22.20;54.20;;;;;;5042060;28;20512;-82
2021/10/23 01:17:24;;;;;;;1.53;1.10;;;22.20;54.20;;;;;;5042326;28;20206;-82
2021/10/23 01:19:54;;;;;;;1.23;0.70;;;22.20;54.20;;;;;;5042582;28;20515;-82
2021/10/23 01:22:28;;;;;;;1.30;1.00;;;22.20;54.20;;;;;;5043760;28;20414;-83
2021/10/23 01:24:54;;;;;;;1.20;1.00;;;22.30;54.30;;;;;;5026074;28;20414;-82
2021/10/23 01:27:20;;;;;;;1.20;1.00;;;22.20;54.20;;;;;;5025647;28;20418;-83
2021/10/23 01:29:48;;;;;;;1.20;0.90;;;22.20;54.20;;;;;;5062454;28;20432;-83
2021/10/23 01:32:14;;;;;;;1.53;0.93;;;22.20;54.20;;;;;;5045485;28;20193;-82
2021/10/23 01:34:40;;;;;;;1.17;1.07;;;22.20;54.20;;;;;;5047007;28;20420;-82
2021/10/23 01:37:08;;;;;;;1.53;1.20;;;22.20;54.20;;;;;;5049132;28;20224;-82
2021/10/23 01:39:35;;;;;;;1.23;1.00;;;22.20;54.20;;;;;;5056369;28;20263;-82
2021/10/23 01:42:01;;;;;;;2.90;1.30;;;22.20;54.20;;;;;;5070019;28;20500;-82
2021/10/23 01:44:31;;;;;;;1.50;1.00;;;22.30;54.30;;;;;;5056720;28;20418;-82
2021/10/23 01:46:57;;;;;;;2.07;1.00;;;22.20;54.20;;;;;;5070339;28;20409;-82
2021/10/23 01:49:23;;;;;;;2.00;1.00;;;22.20;54.20;;;;;;5069492;28;20416;-82
2021/10/23 01:51:49;;;;;;;1.53;1.03;;;22.20;54.20;;;;;;5068673;28;20503;-82
2021/10/23 01:54:15;;;;;;;1.50;1.03;;;22.20;54.20;;;;;;5060971;28;20185;-82
2021/10/23 01:56:41;;;;;;;1.43;0.90;;;22.20;54.20;;;;;;5085641;28;20887;-82
2021/10/23 01:59:08;;;;;;;1.87;0.97;;;22.20;54.20;;;;;;5049406;28;20211;-82
2021/10/23 02:01:34;;;;;;;2.47;1.03;;;22.20;54.20;;;;;;5059832;28;20411;-82
2021/10/23 02:04:00;;;;;;;1.03;0.87;;;22.20;54.20;;;;;;5067962;28;20433;-82
2021/10/23 02:06:26;;;;;;;1.30;0.90;;;22.20;54.20;;;;;;5053501;28;20182;-82
2021/10/23 02:08:52;;;;;;;1.50;0.90;;;22.20;54.20;;;;;;5077738;28;20433;-82
2021/10/23 02:11:18;;;;;;;1.60;1.10;;;22.20;54.20;;;;;;5069310;28;20429;-82
2021/10/23 02:13:47;;;;;;;1.23;0.90;;;22.20;54.20;;;;;;5057962;28;20198;-82
2021/10/23 02:16:14;;;;;;;1.10;0.80;;;22.20;54.30;;;;;;5050668;28;20428;-83
2021/10/23 02:18:40;;;;;;;1.40;1.00;;;22.20;54.30;;;;;;5055643;28;20500;-83
2021/10/23 02:21:07;;;;;;;2.03;0.90;;;22.20;54.30;;;;;;5049279;28;20398;-83
2021/10/23 02:23:36;;;;;;;1.60;1.00;;;22.20;54.30;;;;;;5048406;28;20931;-83
2021/10/23 02:26:02;;;;;;;1.60;0.90;;;22.20;54.30;;;;;;5062410;28;20423;-83
2021/10/23 02:28:34;;;;;;;1.30;1.10;;;22.20;54.30;;;;;;5053706;28;20417;-83
2021/10/23 02:31:02;;;;;;;1.33;0.80;;;22.20;54.30;;;;;;5063738;28;20421;-82
2021/10/23 02:33:28;;;;;;;1.57;0.80;;;22.20;54.30;;;;;;5050559;28;20449;-84
2021/10/23 02:35:53;;;;;;;1.10;0.73;;;22.20;54.30;;;;;;5048611;28;20508;-83
2021/10/23 02:38:22;;;;;;;1.33;0.90;;;22.20;54.30;;;;;;5048662;28;20199;-83
2021/10/23 02:40:48;;;;;;;1.47;1.07;;;22.20;54.30;;;;;;5048638;28;20194;-83
2021/10/23 02:43:13;;;;;;;1.27;0.90;;;22.20;54.30;;;;;;5049178;28;20418;-83
2021/10/23 02:45:39;;;;;;;1.30;1.00;;;22.10;54.20;;;;;;5048978;28;20178;-83
2021/10/23 02:48:05;;;;;;;1.37;0.90;;;22.10;54.30;;;;;;5047831;28;20189;-83
2021/10/23 02:50:33;;;;;;;1.73;0.80;;;22.10;54.30;;;;;;5047640;28;20179;-83
2021/10/23 02:52:58;;;;;;;1.33;0.90;;;22.10;54.30;;;;;;5047402;28;20218;-83
2021/10/23 02:55:24;;;;;;;1.87;1.00;;;22.10;54.30;;;;;;5049257;28;20428;-83
2021/10/23 02:58:45;;;;;;;1.17;0.80;;;22.10;54.30;;;;;;5061496;28;20202;-83
2021/10/23 03:01:11;;;;;;;1.23;0.83;;;22.10;54.30;;;;;;5063579;28;20163;-83
2021/10/23 03:03:39;;;;;;;1.13;0.90;;;22.10;54.30;;;;;;5057398;28;20528;-83
2021/10/23 03:06:04;;;;;;;1.27;0.90;;;22.10;54.30;;;;;;5060995;28;20412;-83
2021/10/23 03:08:30;;;;;;;1.53;0.80;;;22.10;54.30;;;;;;5081680;28;20428;-83
2021/10/23 03:10:56;;;;;;;1.57;1.00;;;22.10;54.30;;;;;;5065429;28;20186;-83
2021/10/23 03:13:22;;;;;;;1.10;1.00;;;22.10;54.30;;;;;;5075134;28;20182;-83
2021/10/23 03:15:47;;;;;;;1.30;0.80;;;22.10;54.30;;;;;;5074873;28;20179;-83
2021/10/23 03:18:13;;;;;;;1.07;0.70;;;22.10;54.30;;;;;;5051073;28;20199;-83
2021/10/23 03:20:39;;;;;;;0.93;0.83;;;22.10;54.30;;;;;;5054404;28;20262;-83
2021/10/23 03:23:05;;;;;;;1.93;1.10;;;22.10;54.20;;;;;;5054401;28;20238;-83
2021/10/23 03:25:35;;;;;;;1.60;1.00;;;22.10;54.20;;;;;;5073845;28;20183;-83
2021/10/23 03:28:03;;;;;;;1.27;0.90;;;22.20;54.30;;;;;;5055818;28;20182;-83
2021/10/23 03:30:29;;;;;;;2.13;0.90;;;22.10;54.20;;;;;;5056000;28;20485;-83
2021/10/23 03:32:58;;;;;;;1.33;1.03;;;22.20;54.30;;;;;;5052526;28;20568;-83
2021/10/23 03:35:23;;;;;;;1.10;0.80;;;22.20;54.30;;;;;;5047471;28;20186;-83
2021/10/23 03:37:49;;;;;;;1.43;0.90;;;22.10;54.20;;;;;;5084042;28;20479;-83
2021/10/23 03:40:15;;;;;;;1.10;0.70;;;22.10;54.20;;;;;;5083712;28;20198;-83
2021/10/23 03:42:41;;;;;;;1.50;0.90;;;22.10;54.80;;;;;;5048976;28;20186;-83
2021/10/23 03:45:07;;;;;;;1.73;1.17;;;22.10;54.20;;;;;;5062818;28;20241;-83
2021/10/23 03:47:32;;;;;;;4.80;1.30;;;22.10;54.30;;;;;;5065612;28;20205;-83
2021/10/23 03:49:58;;;;;;;1.10;0.80;;;22.10;54.30;;;;;;5081391;28;20816;-83
2021/10/23 03:52:24;;;;;;;1.13;0.90;;;22.10;54.30;;;;;;5063896;28;20174;-83
2021/10/23 03:55:10;;;;;;;1.20;0.90;;;22.10;54.30;;;;;;5080745;28;20182;-83
2021/10/23 03:57:37;;;;;;;1.17;0.70;;;22.10;54.30;;;;;;5063372;28;20210;-83
2021/10/23 04:00:05;;;;;;;1.00;0.83;;;22.10;54.30;;;;;;5047442;28;20409;-83
2021/10/23 04:02:31;;;;;;;1.40;0.90;;;22.10;54.30;;;;;;5083714;28;20412;-83
2021/10/23 04:04:57;;;;;;;1.43;0.70;;;22.10;54.30;;;;;;5058821;28;20420;-83
2021/10/23 04:07:23;;;;;;;1.10;0.83;;;22.10;54.60;;;;;;5074491;28;20409;-83
2021/10/23 04:09:49;;;;;;;1.33;0.93;;;22.10;54.30;;;;;;5057024;28;20508;-83
2021/10/23 04:12:15;;;;;;;1.10;0.73;;;22.10;54.40;;;;;;5046910;28;20255;-83
2021/10/23 04:14:40;;;;;;;1.70;0.90;;;22.10;54.30;;;;;;5051242;28;20193;-83
2021/10/23 04:17:17;;;;;;;1.47;1.37;;;22.10;54.30;;;;;;5074929;28;20209;-83
2021/10/23 04:19:43;;;;;;;1.13;0.80;;;22.10;54.30;;;;;;5044030;28;20170;-83
2021/10/23 04:22:12;;;;;;;1.20;0.90;;;22.10;54.30;;;;;;5077150;28;20490;-83
2021/10/23 04:24:38;;;;;;;1.20;0.80;;;22.10;54.30;;;;;;5079170;28;20585;-83
2021/10/23 04:27:04;;;;;;;1.43;0.90;;;22.10;54.30;;;;;;5059804;28;20417;-83
2021/10/23 04:29:30;;;;;;;4.90;2.13;;;22.10;54.30;;;;;;5077495;28;20413;-83
2021/10/23 04:31:56;;;;;;;2.17;0.90;;;22.10;54.30;;;;;;5060914;28;20175;-83
2021/10/23 04:34:22;;;;;;;1.10;0.80;;;22.10;54.30;;;;;;5077643;28;20229;-83
2021/10/23 04:36:47;;;;;;;1.20;0.90;;;22.10;54.20;;;;;;5054474;28;20230;-83
2021/10/23 04:39:16;;;;;;;2.50;1.37;;;22.10;54.20;;;;;;5076188;28;20427;-83
2021/10/23 04:41:42;;;;;;;1.63;1.07;;;22.20;54.30;;;;;;5066991;28;20186;-83
2021/10/23 04:44:08;;;;;;;2.40;0.90;;;22.20;54.20;;;;;;5059236;28;20458;-83
2021/10/23 04:46:34;;;;;;;1.90;1.00;;;22.20;54.20;;;;;;5060278;28;20903;-83
2021/10/23 04:48:59;;;;;;;2.03;0.80;;;22.20;54.20;;;;;;5061209;28;20174;-83
2021/10/23 04:51:25;;;;;;;1.67;1.00;;;22.20;54.20;;;;;;5052433;28;20210;-83
2021/10/23 04:53:51;;;;;;;1.60;1.00;;;22.20;54.10;;;;;;5079040;28;20589;-83
2021/10/23 04:56:17;;;;;;;1.03;0.80;;;22.20;54.10;;;;;;5058240;28;20414;-83
2021/10/23 04:58:43;;;;;;;2.77;1.30;;;22.20;54.10;;;;;;5061453;28;20213;-83
2021/10/23 05:01:09;;;;;;;1.37;0.83;;;22.20;54.10;;;;;;5077439;28;20416;-83
2021/10/23 05:03:34;;;;;;;1.33;0.87;;;22.20;54.10;;;;;;5059721;28;20174;-83
2021/10/23 05:06:00;;;;;;;1.27;0.80;;;22.20;54.00;;;;;;5061072;28;20173;-83
2021/10/23 05:08:26;;;;;;;1.57;1.10;;;22.20;54.00;;;;;;5077808;28;20186;-83
2021/10/23 05:10:52;;;;;;;1.00;0.83;;;22.20;54.00;;;;;;5065590;28;20174;-83
2021/10/23 05:13:17;;;;;;;1.60;0.90;;;22.20;54.00;;;;;;5042550;28;20188;-83
2021/10/23 05:15:43;;;;;;;1.33;0.97;;;22.20;54.00;;;;;;5085551;28;20227;-83
2021/10/23 05:18:09;;;;;;;2.20;1.30;;;22.20;54.00;;;;;;5085646;28;20218;-83
2021/10/23 05:20:35;;;;;;;2.23;1.00;;;22.20;54.00;;;;;;5059817;28;20594;-83
2021/10/23 05:23:01;;;;;;;1.50;1.00;;;22.30;54.00;;;;;;5078758;28;20273;-83
2021/10/23 05:25:28;;;;;;;1.43;0.87;;;22.30;54.00;;;;;;5067390;28;20189;-82
2021/10/23 05:27:55;;;;;;;1.87;1.10;;;22.30;54.10;;;;;;5068549;28;20182;-83
2021/10/23 05:30:21;;;;;;;1.33;0.87;;;22.30;54.70;;;;;;5078631;28;20417;-83
2021/10/23 05:32:49;;;;;;;1.57;1.37;;;22.30;54.00;;;;;;5067949;28;20419;-83
2021/10/23 05:35:15;;;;;;;1.40;1.00;;;22.30;54.00;;;;;;5067555;28;20211;-83
2021/10/23 05:37:40;;;;;;;1.10;0.80;;;22.30;54.00;;;;;;5049474;28;20479;-83
2021/10/23 05:40:07;;;;;;;1.30;0.90;;;22.30;54.00;;;;;;5050097;28;20507;-83
2021/10/23 05:42:33;;;;;;;1.40;0.90;;;22.30;54.00;;;;;;5050383;28;20183;-83
2021/10/23 05:44:58;;;;;;;1.47;1.00;;;22.30;54.00;;;;;;5069025;28;20413;-82
2021/10/23 05:47:24;;;;;;;1.43;0.87;;;22.30;53.90;;;;;;5067166;28;20175;-83
2021/10/23 05:50:36;;;;;;;1.30;1.07;;;22.30;53.90;;;;;;5049721;28;20525;-83
2021/10/23 05:53:02;;;;;;;1.30;1.00;;;22.30;53.90;;;;;;5045269;28;20178;-83
2021/10/23 05:55:27;;;;;;;1.40;1.10;;;22.30;54.50;;;;;;5049658;28;20516;-83
2021/10/23 05:57:53;;;;;;;0.90;0.73;;;22.30;54.00;;;;;;5050192;28;20202;-83
2021/10/23 06:00:19;;;;;;;1.77;0.80;;;22.30;53.90;;;;;;5050160;28;20536;-83
2021/10/23 06:02:46;;;;;;;1.60;0.87;;;22.30;53.90;;;;;;5048269;28;20171;-83
2021/10/23 06:05:12;;;;;;;1.27;0.90;;;22.30;53.90;;;;;;5046738;28;20171;-83
2021/10/23 06:07:40;;;;;;;1.30;0.80;;;22.30;53.90;;;;;;5046982;28;20455;-83
2021/10/23 06:10:11;;;;;;;1.70;0.90;;;22.30;53.90;;;;;;5064751;28;20173;-83
2021/10/23 06:12:37;;;;;;;1.10;0.87;;;22.30;53.80;;;;;;5065304;28;20500;-83
2021/10/23 06:15:05;;;;;;;2.53;0.87;;;22.30;53.80;;;;;;5066526;28;20424;-83
2021/10/23 06:17:31;;;;;;;1.33;0.90;;;22.30;53.80;;;;;;5065036;28;20460;-83
2021/10/23 06:20:28;;;;;;;1.60;0.80;;;22.30;53.80;;;;;;5047043;28;20437;-83
2021/10/23 06:22:54;;;;;;;1.67;0.80;;;22.30;53.80;;;;;;5041934;28;20421;-83
2021/10/23 06:25:21;;;;;;;2.37;1.03;;;22.30;53.90;;;;;;5048854;28;20474;-83
2021/10/23 06:27:47;;;;;;;1.33;0.93;;;22.30;53.80;;;;;;5047753;28;20179;-83
2021/10/23 06:30:14;;;;;;;1.40;1.27;;;22.30;53.80;;;;;;5048303;28;20428;-83
2021/10/23 06:32:51;;;;;;;1.30;1.10;;;22.30;53.80;;;;;;5048528;28;20429;-83
2021/10/23 06:35:17;;;;;;;1.00;0.80;;;22.30;53.80;;;;;;5047925;28;20452;-83
2021/10/23 06:37:44;;;;;;;2.77;1.20;;;22.30;53.80;;;;;;5051997;28;20488;-83
2021/10/23 06:40:10;;;;;;;1.30;1.00;;;22.30;53.80;;;;;;5049327;28;20420;-83
2021/10/23 06:42:39;;;;;;;1.60;0.90;;;22.30;53.80;;;;;;5062990;28;20468;-83
2021/10/23 06:45:07;;;;;;;1.10;0.90;;;22.30;53.80;;;;;;5043089;28;20417;-83
2021/10/23 06:47:33;;;;;;;1.53;1.00;;;22.30;53.80;;;;;;5059685;28;20463;-83
2021/10/23 06:49:58;;;;;;;1.50;0.90;;;22.30;53.80;;;;;;5072771;28;20405;-83
2021/10/23 06:52:25;;;;;;;1.97;1.17;;;22.30;53.80;;;;;;5071374;28;20180;-83
2021/10/23 06:54:52;;;;;;;1.33;0.90;;;22.30;53.80;;;;;;5063480;28;20186;-83
2021/10/23 06:57:21;;;;;;;1.53;1.17;;;22.30;53.80;;;;;;5040248;28;20826;-83
2021/10/23 06:59:47;;;;;;;1.10;1.00;;;22.30;53.70;;;;;;5042770;28;20770;-83
2021/10/23 07:02:12;;;;;;;1.50;0.90;;;22.30;53.70;;;;;;5056917;28;20410;-83
2021/10/23 07:04:38;;;;;;;1.70;1.10;;;22.30;53.70;;;;;;5061131;28;20182;-83
2021/10/23 07:07:04;;;;;;;1.63;0.90;;;22.40;53.80;;;;;;5071331;28;20198;-83
2021/10/23 07:09:30;;;;;;;1.20;0.90;;;22.30;53.70;;;;;;5042007;28;20203;-84
2021/10/23 07:11:55;;;;;;;2.33;1.30;;;22.30;53.70;;;;;;5041443;28;20175;-83
2021/10/23 07:14:21;;;;;;;1.77;1.20;;;22.30;53.70;;;;;;5044313;28;20195;-83
2021/10/23 07:16:47;;;;;;;1.47;1.00;;;22.30;53.70;;;;;;5056013;28;20230;-83
2021/10/23 07:19:13;;;;;;;1.30;1.10;;;22.40;53.70;;;;;;5056187;28;20206;-84
2021/10/23 07:21:39;;;;;;;1.93;1.00;;;22.30;53.70;;;;;;5031337;28;20434;-83
2021/10/23 07:24:05;;;;;;;2.73;1.50;;;22.30;53.70;;;;;;5030122;28;20179;-84
2021/10/23 07:26:32;;;;;;;1.43;1.20;;;22.40;53.70;;;;;;5030870;28;20172;-84
2021/10/23 07:28:59;;;;;;;1.00;0.83;;;22.40;53.70;;;;;;5051208;28;20410;-83
2021/10/23 07:31:24;;;;;;;2.20;1.20;;;22.40;53.70;;;;;;5050360;28;20435;-83
2021/10/23 07:33:53;;;;;;;1.30;0.90;;;22.40;53.70;;;;;;5041125;28;20446;-83
2021/10/23 07:36:22;;;;;;;2.10;1.20;;;22.40;53.70;;;;;;5085107;28;20267;-83
2021/10/23 07:38:50;;;;;;;1.10;1.00;;;22.40;53.70;;;;;;5052012;28;20525;-84
2021/10/23 07:41:17;;;;;;;1.17;1.07;;;22.40;53.70;;;;;;5033570;28;20422;-83
2021/10/23 07:43:43;;;;;;;1.17;1.00;;;22.40;53.70;;;;;;5048367;28;20176;-83
2021/10/23 07:46:18;;;;;;;3.20;0.90;;;22.40;53.70;;;;;;5051249;28;20420;-83
2021/10/23 07:48:44;;;;;;;1.23;1.13;;;22.40;53.70;;;;;;5052929;28;20501;-83
2021/10/23 07:51:14;;;;;;;2.30;1.40;;;22.40;53.70;;;;;;5055506;28;20448;-81
2021/10/23 07:53:45;;;;;;;1.23;0.90;;;22.40;53.70;;;;;;5056114;28;20175;-81
2021/10/23 07:56:16;;;;;;;1.40;1.00;;;22.40;53.70;;;;;;5073841;28;20404;-81
2021/10/23 07:58:43;;;;;;;2.90;1.10;;;22.40;53.70;;;;;;5079230;28;20466;-83
2021/10/23 08:01:09;;;;;;;1.80;1.30;;;22.40;53.70;;;;;;5071428;28;20445;-83
2021/10/23 08:03:37;;;;;;;1.50;1.20;;;22.40;53.70;;;;;;5059346;28;20664;-83
2021/10/23 08:06:03;;;;;;;1.30;1.10;;;22.40;53.60;;;;;;5054584;28;20636;-83
2021/10/23 08:08:30;;;;;;;2.10;1.20;;;22.40;53.70;;;;;;5070546;28;20413;-83
2021/10/23 08:10:59;;;;;;;1.63;1.07;;;22.40;53.70;;;;;;5070845;28;20425;-83
2021/10/23 08:13:28;;;;;;;2.13;1.00;;;22.40;53.60;;;;;;5051837;28;20422;-83
2021/10/23 08:15:53;;;;;;;1.43;0.83;;;22.40;53.60;;;;;;5051643;28;20429;-83
2021/10/23 08:18:20;;;;;;;1.43;1.33;;;22.40;53.70;;;;;;5052959;28;20510;-83
2021/10/23 08:20:47;;;;;;;1.57;1.13;;;22.40;53.70;;;;;;5053172;28;20186;-82
2021/10/23 08:23:15;;;;;;;2.80;1.27;;;22.40;53.70;;;;;;5059348;28;20417;-83
2021/10/23 08:25:41;;;;;;;2.23;1.30;;;22.40;53.60;;;;;;5057676;28;20417;-83
2021/10/23 08:28:10;;;;;;;1.20;0.87;;;22.40;53.60;;;;;;5053238;28;20428;-83
2021/10/23 08:30:41;;;;;;;1.77;1.10;;;22.40;53.70;;;;;;5070522;28;20405;-83
2021/10/23 08:33:09;;;;;;;2.03;1.00;;;22.40;53.70;;;;;;5051911;28;20441;-84
2021/10/23 08:35:35;;;;;;;2.20;1.10;;;22.40;53.70;;;;;;5050853;28;20471;-83
2021/10/23 08:38:02;;;;;;;1.40;1.13;;;22.50;53.80;;;;;;5059077;28;20813;-83
2021/10/23 08:40:30;;;;;;;1.90;1.33;;;22.50;53.80;;;;;;5053247;28;20406;-83
2021/10/23 08:46:28;;;;;;;3.60;1.30;;;22.50;53.70;;;;;;5059429;28;20373;-83
2021/10/23 08:48:59;;;;;;;2.33;1.23;;;22.50;53.80;;;;;;5067107;28;20417;-83
2021/10/23 08:51:25;;;;;;;3.60;1.70;;;22.40;53.60;;;;;;5056298;28;20453;-83
2021/10/23 08:54:04;;;;;;;3.47;1.87;;;22.40;53.40;;;;;;5056725;28;20444;-82
2021/10/23 08:56:38;;;;;;;2.57;2.20;;;22.40;53.10;;;;;;5061200;28;20253;-83
2021/10/23 08:59:04;;;;;;;2.50;1.70;;;22.40;52.80;;;;;;5062328;28;20464;-84
2021/10/23 09:01:30;;;;;;;1.77;1.60;;;22.40;52.60;;;;;;5094664;28;20416;-84
2021/10/23 09:03:55;;;;;;;3.83;2.27;;;22.40;52.60;;;;;;5075301;28;20234;-84
2021/10/23 09:13:07;;;;;;;3.63;1.67;;;22.30;52.80;;;;;;5073051;28;20396;-84
2021/10/23 09:18:55;;;;;;;2.70;1.90;;;22.30;52.70;;;;;;5077768;28;20458;-84
2021/10/23 09:21:25;;;;;;;3.57;1.60;;;22.30;53.50;;;;;;5078021;28;20487;-84
2021/10/23 09:23:51;;;;;;;1.57;1.37;;;22.30;52.90;;;;;;5051273;28;20175;-84
2021/10/23 09:27:13;;;;;;;;;;;;;;;;;;;;;
2021/10/23 09:30:30;;;;;;;2.90;1.70;;;22.30;52.80;;;;;;4985133;28;20424;-84
2021/10/23 09:33:06;;;;;;;3.80;1.93;;;22.30;52.80;;;;;;4978299;28;20436;-84
2021/10/23 09:35:38;;;;;;;2.93;1.77;;;22.30;52.70;;;;;;4992019;28;20436;-83
2021/10/23 09:38:04;;;;;;;3.37;2.23;;;22.30;52.60;;;;;;4989724;28;20460;-84
2021/10/23 09:40:38;;;;;;;3.63;1.80;;;22.30;52.50;;;;;;5000305;28;20416;-83
2021/10/23 09:43:49;;;;;;;2.70;1.70;;;22.30;52.40;;;;;;4990170;28;20488;-83
2021/10/23 09:46:36;;;;;;;3.93;2.17;;;22.30;52.30;;;;;;4991047;28;20436;-84
2021/10/23 09:49:10;;;;;;;3.40;1.70;;;22.20;52.20;;;;;;4977101;28;20429;-84
2021/10/23 09:51:39;;;;;;;4.27;2.53;;;22.20;52.20;;;;;;4990955;28;20449;-84
2021/10/23 09:54:05;;;;;;;2.97;2.43;;;22.20;52.20;;;;;;4991902;28;20452;-84
2021/10/23 09:56:34;;;;;;;4.10;1.93;;;22.20;52.20;;;;;;4987564;28;20421;-85
2021/10/23 09:59:02;;;;;;;2.70;1.70;;;22.20;52.20;;;;;;4987951;28;20471;-84
2021/10/23 10:01:32;;;;;;;2.87;1.70;;;22.20;52.20;;;;;;4990668;28;20417;-84
2021/10/23 10:04:01;;;;;;;3.10;1.57;;;22.30;52.00;;;;;;4986470;28;20915;-84
2021/10/23 10:06:42;;;;;;;3.27;1.43;;;22.20;51.70;;;;;;5060723;28;20409;-85
2021/10/23 10:09:13;;;;;;;2.33;1.70;;;22.20;51.60;;;;;;5050078;28;20417;-84
2021/10/23 10:11:43;;;;;;;2.10;1.20;;;22.20;51.60;;;;;;5057907;28;20773;-84
2021/10/23 10:14:34;;;;;;;5.33;1.97;;;22.20;51.70;;;;;;5053662;28;20406;-83
2021/10/23 10:17:21;;;;;;;3.47;1.73;;;22.20;51.70;;;;;;5046323;28;20421;-88
2021/10/23 10:19:50;;;;;;;4.00;1.60;;;22.20;51.80;;;;;;5060611;28;20400;-85
2021/10/23 10:22:19;;;;;;;4.70;2.07;;;22.20;51.90;;;;;;5060818;28;20448;-84
2021/10/23 10:24:45;;;;;;;4.13;1.87;;;22.20;51.90;;;;;;5065418;28;20424;-84
2021/10/23 10:27:17;;;;;;;3.53;1.70;;;22.20;51.90;;;;;;5055586;28;20502;-84
2021/10/23 10:29:54;;;;;;;2.93;1.70;;;22.20;52.00;;;;;;5061729;28;20428;-84
2021/10/23 10:32:33;;;;;;;3.60;1.50;;;22.20;52.00;;;;;;5054240;28;20421;-84
2021/10/23 10:38:02;;;;;;;2.27;1.27;;;22.20;52.00;;;;;;5075263;28;20545;-82
2021/10/23 10:43:28;;;;;;;2.20;1.80;;;22.20;52.10;;;;;;4964900;28;20444;-82
2021/10/23 10:46:01;;;;;;;6.63;1.93;;;22.10;52.00;;;;;;4975188;28;20410;-83
2021/10/23 10:48:42;;;;;;;3.10;1.90;;;22.10;52.10;;;;;;4972834;28;20460;-82
2021/10/23 10:51:32;;;;;;;3.40;1.57;;;22.20;52.20;;;;;;4977377;28;20510;-82
2021/10/23 10:54:20;;;;;;;2.37;1.50;;;22.20;52.20;;;;;;4954693;29;20439;-82
2021/10/23 10:56:49;;;;;;;3.30;1.47;;;22.20;52.20;;;;;;4939028;29;20439;-82
2021/10/23 10:59:50;;;;;;;2.80;1.47;;;22.20;52.30;;;;;;4954723;29;20466;-82
2021/10/23 11:02:36;;;;;;;2.97;1.47;;;22.20;52.30;;;;;;4955116;29;20931;-82
2021/10/23 11:05:18;;;;;;;3.53;1.07;;;22.20;52.40;;;;;;4938907;29;20422;-82
2021/10/23 11:08:15;;;;;;;2.20;1.20;;;22.20;52.30;;;;;;4955124;29;20487;-81
2021/10/23 11:11:06;;;;;;;3.40;1.23;;;22.20;52.30;;;;;;4909998;29;20425;-81
2021/10/23 11:13:43;;;;;;;3.50;1.83;;;22.20;52.40;;;;;;4897004;29;20461;-84
2021/10/23 11:16:25;;;;;;;2.13;1.30;;;22.20;52.40;;;;;;4910419;29;20950;-84
2021/10/23 11:19:15;;;;;;;2.87;1.50;;;22.20;52.40;;;;;;4908340;29;20488;-84
2021/10/23 11:21:41;;;;;;;3.37;1.27;;;22.20;52.40;;;;;;4960501;29;20455;-84
2021/10/23 11:24:07;;;;;;;1.83;1.17;;;22.10;52.40;;;;;;4967028;29;20449;-85
2021/10/23 11:26:33;;;;;;;3.77;1.70;;;22.10;52.40;;;;;;4948725;29;20427;-85
2021/10/23 11:29:19;;;;;;;2.27;1.40;;;22.20;52.40;;;;;;4955121;29;20191;-84
2021/10/23 11:31:45;;;;;;;2.33;1.20;;;22.20;52.40;;;;;;4962505;29;20456;-85
2021/10/23 11:34:22;;;;;;;3.80;1.47;;;22.20;52.50;;;;;;4966254;28;20489;-84
2021/10/23 11:37:15;;;;;;;2.17;1.60;;;22.20;52.50;;;;;;4961357;29;20433;-85
2021/10/23 11:40:00;;;;;;;2.83;1.40;;;22.20;52.50;;;;;;4969003;28;20943;-85
2021/10/23 11:42:30;;;;;;;4.10;1.30;;;22.10;52.40;;;;;;4969075;28;20451;-84
2021/10/23 11:45:04;;;;;;;4.73;1.83;;;22.20;52.40;;;;;;4961928;29;20449;-84
2021/10/23 11:47:33;;;;;;;2.57;1.80;;;22.10;51.90;;;;;;5028979;28;20419;-85
2021/10/23 11:50:22;;;;;;;4.40;1.80;;;22.10;51.80;;;;;;5050991;28;20485;-85
2021/10/23 11:53:15;;;;;;;3.30;1.80;;;22.10;51.60;;;;;;5051364;28;20437;-84
2021/10/23 11:56:01;;;;;;;5.60;1.47;;;22.10;51.20;;;;;;4960647;28;20425;-84
2021/10/23 11:58:32;;;;;;;2.37;1.53;;;22.10;51.10;;;;;;4968861;28;20877;-84
2021/10/23 12:01:21;;;;;;;4.10;1.60;;;22.10;50.90;;;;;;4952920;29;20423;-84
2021/10/23 12:03:59;;;;;;;5.93;2.10;;;22.10;50.90;;;;;;4970514;28;20436;-84
2021/10/23 12:06:26;;;;;;;3.47;1.43;;;22.10;50.80;;;;;;4966883;28;20508;-84
2021/10/23 12:09:12;;;;;;;2.90;1.20;;;22.00;50.80;;;;;;4966935;28;20425;-84
2021/10/23 12:11:38;;;;;;;2.50;1.23;;;22.00;50.90;;;;;;4949946;28;20478;-84
2021/10/23 12:14:11;;;;;;;2.90;1.67;;;22.00;51.00;;;;;;4966665;28;20422;-84
2021/10/23 12:17:03;;;;;;;2.00;1.20;;;22.00;51.10;;;;;;4950636;28;20197;-84
2021/10/23 12:19:40;;;;;;;2.60;1.60;;;22.10;51.20;;;;;;4935822;28;20442;-84
2021/10/23 12:22:15;;;;;;;3.70;2.50;;;22.00;51.30;;;;;;4966275;28;20422;-84
2021/10/23 12:24:44;;;;;;;2.90;1.27;;;22.00;51.30;;;;;;4950365;29;20425;-84
2021/10/23 12:27:15;;;;;;;2.03;1.40;;;22.00;51.40;;;;;;4966559;28;20418;-84
2021/10/23 12:29:47;;;;;;;2.77;1.80;;;22.00;51.40;;;;;;4966223;28;20436;-84
2021/10/23 12:32:19;;;;;;;3.60;1.40;;;22.00;51.40;;;;;;4990156;28;21033;-84
2021/10/23 12:35:26;;;;;;;2.93;1.40;;;22.00;51.50;;;;;;5036909;28;20473;-84
2021/10/23 12:38:12;;;;;;;2.00;1.20;;;22.10;51.60;;;;;;5053648;28;20461;-84
2021/10/23 12:40:42;;;;;;;2.03;1.10;;;22.00;52.20;;;;;;5021096;28;20461;-84
2021/10/23 12:43:14;;;;;;;1.63;1.20;;;22.00;51.70;;;;;;5034337;28;20422;-83
2021/10/23 12:45:42;;;;;;;3.63;1.63;;;22.00;51.80;;;;;;5033746;28;20430;-84
2021/10/23 12:48:15;;;;;;;2.20;1.40;;;22.00;51.80;;;;;;5032869;28;20426;-84
2021/10/23 12:50:48;;;;;;;5.23;2.90;;;22.00;51.90;;;;;;5049321;28;20395;-84
2021/10/23 12:53:14;;;;;;;2.70;1.67;;;22.00;51.90;;;;;;5032280;28;20414;-84
2021/10/23 12:55:46;;;;;;;1.57;1.20;;;22.00;52.00;;;;;;5050655;28;20410;-84
2021/10/23 13:01:26;;;;;;;4.63;1.40;;;22.10;52.10;;;;;;5050308;28;20391;-84
2021/10/23 13:03:53;;;;;;;3.00;1.43;;;22.00;52.10;;;;;;5051599;28;20391;-84
2021/10/23 13:06:19;;;;;;;3.47;2.17;;;22.00;52.20;;;;;;5050104;28;20421;-84
2021/10/23 13:08:47;;;;;;;2.47;1.33;;;22.10;52.30;;;;;;5033397;28;20939;-84
2021/10/23 13:11:18;;;;;;;2.20;1.30;;;22.00;52.20;;;;;;5051421;28;20505;-84
2021/10/23 13:13:55;;;;;;;2.33;1.30;;;22.00;52.20;;;;;;5033763;28;20481;-83
2021/10/23 13:16:30;;;;;;;2.33;1.13;;;22.00;52.20;;;;;;5033558;28;20419;-83
2021/10/23 13:18:56;;;;;;;2.50;1.27;;;22.00;52.30;;;;;;5033108;28;20484;-84
2021/10/23 13:24:52;;;;;;;2.30;1.30;;;22.10;52.40;;;;;;5052166;28;20406;-81
2021/10/23 13:27:25;;;;;;;2.60;1.83;;;22.00;52.40;;;;;;5034917;28;20904;-82
2021/10/23 13:29:55;;;;;;;1.60;1.40;;;22.00;52.40;;;;;;5034692;28;20394;-82
2021/10/23 13:32:22;;;;;;;2.53;1.60;;;22.00;52.50;;;;;;5038722;28;20411;-82